sensor_id;sensor_type;location;lat;lon;timestamp;P1;P2;P0
26185;PMS7003;20067;48.764;9.176;2024-03-22T00:01:46;28.25;26.00;16.00
26185;PMS7003;20067;48.764;9.176;2024-03-22T00:04:13;27.75;24.50;16.75
26185;PMS7003;20067;48.764;9.176;2024-03-22T00:06:40;28.25;26.50;15.00
26185;PMS7003;20067;48.764;9.176;2024-03-22T00:09:08;27.25;24.75;15.00
26185;PMS7003;20067;48.764;9.176;2024-03-22T00:11:34;24.00;23.50;13.00
26185;PMS7003;20067;48.764;9.176;2024-03-22T00:14:01;25.50;23.50;13.75
26185;PMS7003;20067;48.764;9.176;2024-03-22T00:16:27;24.50;24.00;14.75
26185;PMS7003;20067;48.764;9.176;2024-03-22T00:18:54;25.25;24.25;14.25
26185;PMS7003;20067;48.764;9.176;2024-03-22T00:21:21;28.75;28.75;15.00
26185;PMS7003;20067;48.764;9.176;2024-03-22T00:23:48;25.00;22.75;12.00
26185;PMS7003;20067;48.764;9.176;2024-03-22T00:26:14;21.50;19.25;11.00
26185;PMS7003;20067;48.764;9.176;2024-03-22T00:28:41;23.75;22.25;13.00
26185;PMS7003;20067;48.764;9.176;2024-03-22T00:31:06;26.50;23.00;14.00
26185;PMS7003;20067;48.764;9.176;2024-03-22T00:33:34;27.75;24.00;14.50
26185;PMS7003;20067;48.764;9.176;2024-03-22T00:36:00;28.50;23.00;13.75
26185;PMS7003;20067;48.764;9.176;2024-03-22T00:38:27;24.50;24.00;14.00
26185;PMS7003;20067;48.764;9.176;2024-03-22T00:40:53;28.00;21.75;12.50
26185;PMS7003;20067;48.764;9.176;2024-03-22T00:43:20;30.25;24.25;12.00
26185;PMS7003;20067;48.764;9.176;2024-03-22T00:45:46;26.50;23.75;11.50
26185;PMS7003;20067;48.764;9.176;2024-03-22T00:48:13;27.75;25.25;14.00
26185;PMS7003;20067;48.764;9.176;2024-03-22T00:50:40;28.25;27.00;15.00
26185;PMS7003;20067;48.764;9.176;2024-03-22T00:53:06;28.25;24.75;12.00
26185;PMS7003;20067;48.764;9.176;2024-03-22T00:55:33;28.50;25.25;14.50
26185;PMS7003;20067;48.764;9.176;2024-03-22T00:57:59;23.00;22.25;12.00
26185;PMS7003;20067;48.764;9.176;2024-03-22T01:00:25;25.50;22.75;11.50
26185;PMS7003;20067;48.764;9.176;2024-03-22T01:02:52;25.50;22.50;11.75
26185;PMS7003;20067;48.764;9.176;2024-03-22T01:05:18;25.50;22.75;12.00
26185;PMS7003;20067;48.764;9.176;2024-03-22T01:07:44;26.75;22.50;11.00
26185;PMS7003;20067;48.764;9.176;2024-03-22T01:10:10;34.00;26.25;12.50
26185;PMS7003;20067;48.764;9.176;2024-03-22T01:12:38;28.75;25.50;14.00
26185;PMS7003;20067;48.764;9.176;2024-03-22T01:15:05;24.50;22.75;13.25
26185;PMS7003;20067;48.764;9.176;2024-03-22T01:17:33;25.00;23.00;11.00
26185;PMS7003;20067;48.764;9.176;2024-03-22T01:19:59;27.25;24.00;11.00
26185;PMS7003;20067;48.764;9.176;2024-03-22T01:22:25;24.75;23.75;14.00
26185;PMS7003;20067;48.764;9.176;2024-03-22T01:24:51;27.50;22.50;13.00
26185;PMS7003;20067;48.764;9.176;2024-03-22T01:27:18;27.00;23.25;12.00
26185;PMS7003;20067;48.764;9.176;2024-03-22T01:29:44;29.25;22.50;13.00
26185;PMS7003;20067;48.764;9.176;2024-03-22T01:32:11;24.00;23.00;11.50
26185;PMS7003;20067;48.764;9.176;2024-03-22T01:34:36;23.00;20.00;13.50
26185;PMS7003;20067;48.764;9.176;2024-03-22T01:37:03;24.50;22.50;11.25
26185;PMS7003;20067;48.764;9.176;2024-03-22T01:39:29;26.25;23.00;12.00
26185;PMS7003;20067;48.764;9.176;2024-03-22T01:41:56;25.00;24.00;14.00
26185;PMS7003;20067;48.764;9.176;2024-03-22T01:44:31;28.00;22.75;11.25
26185;PMS7003;20067;48.764;9.176;2024-03-22T01:46:58;21.75;20.50;11.50
26185;PMS7003;20067;48.764;9.176;2024-03-22T01:49:24;23.00;22.75;14.00
26185;PMS7003;20067;48.764;9.176;2024-03-22T01:51:52;24.00;17.50;11.00
26185;PMS7003;20067;48.764;9.176;2024-03-22T01:54:18;24.75;24.75;14.00
26185;PMS7003;20067;48.764;9.176;2024-03-22T01:56:46;29.00;24.00;14.00
26185;PMS7003;20067;48.764;9.176;2024-03-22T01:59:12;23.50;21.00;11.50
26185;PMS7003;20067;48.764;9.176;2024-03-22T02:01:40;28.50;24.50;14.75
26185;PMS7003;20067;48.764;9.176;2024-03-22T02:04:06;23.00;22.25;13.50
26185;PMS7003;20067;48.764;9.176;2024-03-22T02:06:32;26.50;24.00;13.00
26185;PMS7003;20067;48.764;9.176;2024-03-22T02:08:58;23.25;20.75;12.25
26185;PMS7003;20067;48.764;9.176;2024-03-22T02:11:25;22.25;22.00;12.00
26185;PMS7003;20067;48.764;9.176;2024-03-22T02:13:51;22.50;19.50;12.00
26185;PMS7003;20067;48.764;9.176;2024-03-22T02:16:18;21.75;21.00;12.00
26185;PMS7003;20067;48.764;9.176;2024-03-22T02:18:44;22.50;20.00;11.25
26185;PMS7003;20067;48.764;9.176;2024-03-22T02:21:11;26.50;22.50;11.00
26185;PMS7003;20067;48.764;9.176;2024-03-22T02:23:37;26.00;22.00;11.50
26185;PMS7003;20067;48.764;9.176;2024-03-22T02:26:05;24.75;22.75;11.75
26185;PMS7003;20067;48.764;9.176;2024-03-22T02:28:32;22.50;19.75;11.75
26185;PMS7003;20067;48.764;9.176;2024-03-22T02:31:00;30.00;24.00;12.50
26185;PMS7003;20067;48.764;9.176;2024-03-22T02:33:27;24.50;23.75;11.75
26185;PMS7003;20067;48.764;9.176;2024-03-22T02:35:54;19.75;19.25;11.50
26185;PMS7003;20067;48.764;9.176;2024-03-22T02:38:19;20.00;20.00;10.50
26185;PMS7003;20067;48.764;9.176;2024-03-22T02:40:47;24.50;24.50;14.00
26185;PMS7003;20067;48.764;9.176;2024-03-22T02:43:14;24.75;19.50;11.00
26185;PMS7003;20067;48.764;9.176;2024-03-22T02:45:42;24.50;22.50;11.50
26185;PMS7003;20067;48.764;9.176;2024-03-22T02:48:08;21.25;21.25;10.25
26185;PMS7003;20067;48.764;9.176;2024-03-22T02:50:38;27.25;24.75;11.75
26185;PMS7003;20067;48.764;9.176;2024-03-22T02:53:04;27.50;22.25;11.00
26185;PMS7003;20067;48.764;9.176;2024-03-22T02:55:40;24.50;24.00;12.75
26185;PMS7003;20067;48.764;9.176;2024-03-22T02:58:07;25.00;22.50;11.75
26185;PMS7003;20067;48.764;9.176;2024-03-22T03:00:37;23.75;20.50;11.00
26185;PMS7003;20067;48.764;9.176;2024-03-22T03:03:06;24.25;23.50;12.00
26185;PMS7003;20067;48.764;9.176;2024-03-22T03:05:33;21.25;20.75;11.75
26185;PMS7003;20067;48.764;9.176;2024-03-22T03:07:59;29.75;26.00;15.00
26185;PMS7003;20067;48.764;9.176;2024-03-22T03:10:26;26.25;22.50;15.00
26185;PMS7003;20067;48.764;9.176;2024-03-22T03:12:54;28.50;24.00;12.00
26185;PMS7003;20067;48.764;9.176;2024-03-22T03:15:21;25.00;22.25;12.50
26185;PMS7003;20067;48.764;9.176;2024-03-22T03:17:47;25.00;19.25;11.00
26185;PMS7003;20067;48.764;9.176;2024-03-22T03:20:13;22.75;19.25;10.00
26185;PMS7003;20067;48.764;9.176;2024-03-22T03:22:40;29.75;26.50;14.00
26185;PMS7003;20067;48.764;9.176;2024-03-22T03:25:07;29.00;24.00;13.00
26185;PMS7003;20067;48.764;9.176;2024-03-22T03:27:33;24.25;20.25;11.50
26185;PMS7003;20067;48.764;9.176;2024-03-22T03:30:00;24.00;23.25;14.50
26185;PMS7003;20067;48.764;9.176;2024-03-22T03:32:26;26.50;23.75;13.50
26185;PMS7003;20067;48.764;9.176;2024-03-22T03:34:53;33.25;27.50;14.50
26185;PMS7003;20067;48.764;9.176;2024-03-22T03:37:19;20.00;19.00;11.00
26185;PMS7003;20067;48.764;9.176;2024-03-22T03:39:46;22.50;22.50;12.25
26185;PMS7003;20067;48.764;9.176;2024-03-22T03:42:12;22.50;20.25;13.00
26185;PMS7003;20067;48.764;9.176;2024-03-22T03:44:38;24.75;24.25;14.00
26185;PMS7003;20067;48.764;9.176;2024-03-22T03:47:05;27.75;22.25;11.50
26185;PMS7003;20067;48.764;9.176;2024-03-22T03:49:32;30.00;24.75;12.00
26185;PMS7003;20067;48.764;9.176;2024-03-22T03:51:57;28.50;25.00;14.00
26185;PMS7003;20067;48.764;9.176;2024-03-22T03:54:24;23.75;21.75;12.75
26185;PMS7003;20067;48.764;9.176;2024-03-22T03:56:50;23.75;23.00;11.75
26185;PMS7003;20067;48.764;9.176;2024-03-22T03:59:16;22.50;18.50;12.75
26185;PMS7003;20067;48.764;9.176;2024-03-22T04:01:43;29.50;23.75;13.25
26185;PMS7003;20067;48.764;9.176;2024-03-22T04:04:09;22.50;20.25;12.25
26185;PMS7003;20067;48.764;9.176;2024-03-22T04:06:35;22.75;21.50;13.50
26185;PMS7003;20067;48.764;9.176;2024-03-22T04:09:02;21.25;19.25;10.50
26185;PMS7003;20067;48.764;9.176;2024-03-22T04:11:28;24.25;20.25;12.00
26185;PMS7003;20067;48.764;9.176;2024-03-22T04:13:55;20.00;20.00;12.00
26185;PMS7003;20067;48.764;9.176;2024-03-22T04:16:21;27.25;22.75;13.75
26185;PMS7003;20067;48.764;9.176;2024-03-22T04:18:48;20.25;17.50;11.00
26185;PMS7003;20067;48.764;9.176;2024-03-22T04:21:14;23.00;20.00;12.00
26185;PMS7003;20067;48.764;9.176;2024-03-22T04:23:41;19.25;18.75;11.00
26185;PMS7003;20067;48.764;9.176;2024-03-22T04:26:07;22.25;19.25;10.00
26185;PMS7003;20067;48.764;9.176;2024-03-22T04:28:33;22.25;20.00;12.00
26185;PMS7003;20067;48.764;9.176;2024-03-22T04:31:06;18.75;18.75;11.75
26185;PMS7003;20067;48.764;9.176;2024-03-22T04:33:34;23.00;18.00;9.50
26185;PMS7003;20067;48.764;9.176;2024-03-22T04:36:01;17.75;16.75;9.75
26185;PMS7003;20067;48.764;9.176;2024-03-22T04:38:29;27.50;23.25;13.00
26185;PMS7003;20067;48.764;9.176;2024-03-22T04:40:56;21.00;18.00;12.00
26185;PMS7003;20067;48.764;9.176;2024-03-22T04:43:23;20.50;18.75;11.00
26185;PMS7003;20067;48.764;9.176;2024-03-22T04:45:51;23.75;21.00;12.00
26185;PMS7003;20067;48.764;9.176;2024-03-22T04:48:18;24.75;20.25;12.00
26185;PMS7003;20067;48.764;9.176;2024-03-22T04:50:46;22.75;22.50;11.00
26185;PMS7003;20067;48.764;9.176;2024-03-22T04:53:14;18.50;18.00;10.00
26185;PMS7003;20067;48.764;9.176;2024-03-22T04:55:42;23.50;20.50;10.00
26185;PMS7003;20067;48.764;9.176;2024-03-22T04:58:28;20.50;16.75;9.00
26185;PMS7003;20067;48.764;9.176;2024-03-22T05:00:56;20.00;20.00;10.00
26185;PMS7003;20067;48.764;9.176;2024-03-22T05:03:24;20.75;18.00;9.75
26185;PMS7003;20067;48.764;9.176;2024-03-22T05:05:50;20.50;20.00;12.00
26185;PMS7003;20067;48.764;9.176;2024-03-22T05:08:17;16.25;14.75;7.00
26185;PMS7003;20067;48.764;9.176;2024-03-22T05:10:42;19.75;18.00;10.50
26185;PMS7003;20067;48.764;9.176;2024-03-22T05:13:09;23.50;20.50;11.00
26185;PMS7003;20067;48.764;9.176;2024-03-22T05:15:35;19.50;18.00;10.00
26185;PMS7003;20067;48.764;9.176;2024-03-22T05:18:02;25.00;20.00;12.00
26185;PMS7003;20067;48.764;9.176;2024-03-22T05:20:28;16.50;16.50;9.25
26185;PMS7003;20067;48.764;9.176;2024-03-22T05:22:55;23.50;22.00;12.25
26185;PMS7003;20067;48.764;9.176;2024-03-22T05:25:20;17.25;15.50;9.00
26185;PMS7003;20067;48.764;9.176;2024-03-22T05:27:47;21.25;20.25;12.00
26185;PMS7003;20067;48.764;9.176;2024-03-22T05:30:13;18.00;16.75;7.00
26185;PMS7003;20067;48.764;9.176;2024-03-22T05:32:40;20.75;16.75;8.00
26185;PMS7003;20067;48.764;9.176;2024-03-22T05:35:06;20.75;17.50;10.50
26185;PMS7003;20067;48.764;9.176;2024-03-22T05:37:33;19.00;18.50;9.75
26185;PMS7003;20067;48.764;9.176;2024-03-22T05:39:59;19.00;18.00;10.50
26185;PMS7003;20067;48.764;9.176;2024-03-22T05:42:26;18.75;17.75;9.00
26185;PMS7003;20067;48.764;9.176;2024-03-22T05:44:53;19.75;18.50;9.00
26185;PMS7003;20067;48.764;9.176;2024-03-22T05:47:21;18.50;15.75;10.50
26185;PMS7003;20067;48.764;9.176;2024-03-22T05:49:47;22.50;20.75;12.00
26185;PMS7003;20067;48.764;9.176;2024-03-22T05:52:14;19.00;16.00;9.75
26185;PMS7003;20067;48.764;9.176;2024-03-22T05:54:40;23.00;18.25;10.00
26185;PMS7003;20067;48.764;9.176;2024-03-22T05:57:07;22.50;19.75;10.00
26185;PMS7003;20067;48.764;9.176;2024-03-22T05:59:33;19.50;19.00;9.50
26185;PMS7003;20067;48.764;9.176;2024-03-22T06:01:59;24.00;20.75;11.00
26185;PMS7003;20067;48.764;9.176;2024-03-22T06:04:25;23.75;20.00;11.50
26185;PMS7003;20067;48.764;9.176;2024-03-22T06:06:52;18.00;17.50;10.00
26185;PMS7003;20067;48.764;9.176;2024-03-22T06:09:18;20.25;17.75;9.75
26185;PMS7003;20067;48.764;9.176;2024-03-22T06:11:52;23.75;20.75;11.00
26185;PMS7003;20067;48.764;9.176;2024-03-22T06:14:17;16.50;16.50;11.50
26185;PMS7003;20067;48.764;9.176;2024-03-22T06:16:44;23.75;18.00;10.00
26185;PMS7003;20067;48.764;9.176;2024-03-22T06:19:10;19.25;19.25;12.00
26185;PMS7003;20067;48.764;9.176;2024-03-22T06:21:36;23.25;22.00;12.25
26185;PMS7003;20067;48.764;9.176;2024-03-22T06:24:02;22.75;19.75;10.00
26185;PMS7003;20067;48.764;9.176;2024-03-22T06:26:29;22.75;22.00;12.25
26185;PMS7003;20067;48.764;9.176;2024-03-22T06:28:55;18.75;17.50;11.00
26185;PMS7003;20067;48.764;9.176;2024-03-22T06:31:22;18.75;18.00;10.00
26185;PMS7003;20067;48.764;9.176;2024-03-22T06:33:47;17.00;16.00;9.00
26185;PMS7003;20067;48.764;9.176;2024-03-22T06:36:14;24.25;20.75;12.00
26185;PMS7003;20067;48.764;9.176;2024-03-22T06:38:40;24.75;21.50;10.00
26185;PMS7003;20067;48.764;9.176;2024-03-22T06:41:07;19.75;16.00;10.00
26185;PMS7003;20067;48.764;9.176;2024-03-22T06:43:33;24.00;19.00;10.50
26185;PMS7003;20067;48.764;9.176;2024-03-22T06:46:00;19.50;16.00;9.00
26185;PMS7003;20067;48.764;9.176;2024-03-22T06:48:25;24.25;21.75;13.00
26185;PMS7003;20067;48.764;9.176;2024-03-22T06:50:52;22.25;19.00;12.00
26185;PMS7003;20067;48.764;9.176;2024-03-22T06:53:18;26.75;21.25;12.75
26185;PMS7003;20067;48.764;9.176;2024-03-22T06:55:44;21.25;20.25;11.75
26185;PMS7003;20067;48.764;9.176;2024-03-22T06:58:10;19.25;19.00;12.25
26185;PMS7003;20067;48.764;9.176;2024-03-22T07:00:37;23.50;19.00;12.25
26185;PMS7003;20067;48.764;9.176;2024-03-22T07:03:03;18.50;18.50;10.50
26185;PMS7003;20067;48.764;9.176;2024-03-22T07:05:31;19.25;17.00;10.00
26185;PMS7003;20067;48.764;9.176;2024-03-22T07:07:57;29.00;21.75;13.50
26185;PMS7003;20067;48.764;9.176;2024-03-22T07:10:24;28.25;22.00;13.00
26185;PMS7003;20067;48.764;9.176;2024-03-22T07:12:53;22.25;22.25;13.50
26185;PMS7003;20067;48.764;9.176;2024-03-22T07:15:23;23.00;19.25;10.00
26185;PMS7003;20067;48.764;9.176;2024-03-22T07:17:49;25.50;22.00;13.75
26185;PMS7003;20067;48.764;9.176;2024-03-22T07:20:17;20.50;20.50;13.00
26185;PMS7003;20067;48.764;9.176;2024-03-22T07:22:43;23.25;21.25;13.50
26185;PMS7003;20067;48.764;9.176;2024-03-22T07:25:11;19.00;17.75;12.00
26185;PMS7003;20067;48.764;9.176;2024-03-22T07:27:36;23.00;23.00;13.50
26185;PMS7003;20067;48.764;9.176;2024-03-22T07:30:03;26.25;22.00;13.00
26185;PMS7003;20067;48.764;9.176;2024-03-22T07:32:30;21.75;20.00;11.00
26185;PMS7003;20067;48.764;9.176;2024-03-22T07:34:56;26.75;23.75;13.75
26185;PMS7003;20067;48.764;9.176;2024-03-22T07:37:23;28.50;24.50;14.00
26185;PMS7003;20067;48.764;9.176;2024-03-22T07:39:49;19.75;18.25;11.75
26185;PMS7003;20067;48.764;9.176;2024-03-22T07:42:15;26.00;21.50;14.25
26185;PMS7003;20067;48.764;9.176;2024-03-22T07:44:42;28.25;24.25;14.50
26185;PMS7003;20067;48.764;9.176;2024-03-22T07:47:08;25.00;24.00;13.00
26185;PMS7003;20067;48.764;9.176;2024-03-22T07:49:35;21.75;21.25;13.00
26185;PMS7003;20067;48.764;9.176;2024-03-22T07:52:01;20.75;17.75;10.75
26185;PMS7003;20067;48.764;9.176;2024-03-22T07:54:29;20.50;20.50;11.00
26185;PMS7003;20067;48.764;9.176;2024-03-22T07:56:55;23.75;23.25;13.75
26185;PMS7003;20067;48.764;9.176;2024-03-22T07:59:22;21.00;18.50;10.00
26185;PMS7003;20067;48.764;9.176;2024-03-22T08:01:49;20.25;17.50;10.50
26185;PMS7003;20067;48.764;9.176;2024-03-22T08:04:17;29.50;22.00;13.25
26185;PMS7003;20067;48.764;9.176;2024-03-22T08:06:45;17.75;17.25;10.00
26185;PMS7003;20067;48.764;9.176;2024-03-22T08:09:13;22.50;21.00;11.25
26185;PMS7003;20067;48.764;9.176;2024-03-22T08:11:39;15.00;14.25;8.50
26185;PMS7003;20067;48.764;9.176;2024-03-22T08:14:06;19.75;19.25;10.75
26185;PMS7003;20067;48.764;9.176;2024-03-22T08:16:32;16.75;14.25;9.00
26185;PMS7003;20067;48.764;9.176;2024-03-22T08:18:58;20.25;18.00;11.00
26185;PMS7003;20067;48.764;9.176;2024-03-22T08:21:24;19.50;18.75;10.75
26185;PMS7003;20067;48.764;9.176;2024-03-22T08:23:51;19.00;16.25;10.00
26185;PMS7003;20067;48.764;9.176;2024-03-22T08:26:17;18.00;17.00;10.00
26185;PMS7003;20067;48.764;9.176;2024-03-22T08:28:44;20.00;17.00;9.00
26185;PMS7003;20067;48.764;9.176;2024-03-22T08:31:11;19.25;18.00;11.25
26185;PMS7003;20067;48.764;9.176;2024-03-22T08:33:38;19.25;18.75;10.50
26185;PMS7003;20067;48.764;9.176;2024-03-22T08:36:04;18.50;16.25;10.00
26185;PMS7003;20067;48.764;9.176;2024-03-22T08:38:31;14.00;14.00;9.00
26185;PMS7003;20067;48.764;9.176;2024-03-22T08:40:57;17.00;15.00;9.00
26185;PMS7003;20067;48.764;9.176;2024-03-22T08:43:23;11.75;11.75;7.25
26185;PMS7003;20067;48.764;9.176;2024-03-22T08:45:50;15.00;12.00;8.00
26185;PMS7003;20067;48.764;9.176;2024-03-22T08:48:18;15.75;13.25;8.25
26185;PMS7003;20067;48.764;9.176;2024-03-22T08:50:44;17.00;14.25;9.00
26185;PMS7003;20067;48.764;9.176;2024-03-22T08:53:11;19.25;14.00;8.00
26185;PMS7003;20067;48.764;9.176;2024-03-22T08:55:36;15.00;13.50;9.25
26185;PMS7003;20067;48.764;9.176;2024-03-22T08:58:03;14.75;13.50;8.25
26185;PMS7003;20067;48.764;9.176;2024-03-22T09:00:30;18.25;16.00;9.25
26185;PMS7003;20067;48.764;9.176;2024-03-22T09:02:56;23.50;23.50;13.50
26185;PMS7003;20067;48.764;9.176;2024-03-22T09:05:22;16.25;16.00;9.50
26185;PMS7003;20067;48.764;9.176;2024-03-22T09:07:49;16.25;13.50;9.00
26185;PMS7003;20067;48.764;9.176;2024-03-22T09:10:17;16.50;14.75;9.00
26185;PMS7003;20067;48.764;9.176;2024-03-22T09:12:44;21.25;16.75;9.00
26185;PMS7003;20067;48.764;9.176;2024-03-22T09:15:10;19.75;15.25;9.00
26185;PMS7003;20067;48.764;9.176;2024-03-22T09:17:37;16.75;16.50;8.00
26185;PMS7003;20067;48.764;9.176;2024-03-22T09:20:03;16.50;16.50;9.75
26185;PMS7003;20067;48.764;9.176;2024-03-22T09:22:32;17.75;15.25;8.00
26185;PMS7003;20067;48.764;9.176;2024-03-22T09:24:58;12.75;12.25;7.25
26185;PMS7003;20067;48.764;9.176;2024-03-22T09:27:25;13.75;12.50;7.50
26185;PMS7003;20067;48.764;9.176;2024-03-22T09:29:51;13.00;12.75;7.25
26185;PMS7003;20067;48.764;9.176;2024-03-22T09:32:18;12.75;12.75;6.50
26185;PMS7003;20067;48.764;9.176;2024-03-22T09:34:44;10.25;10.00;5.00
26185;PMS7003;20067;48.764;9.176;2024-03-22T09:37:11;10.25;9.50;5.00
26185;PMS7003;20067;48.764;9.176;2024-03-22T09:39:36;11.00;9.50;5.00
26185;PMS7003;20067;48.764;9.176;2024-03-22T09:42:04;10.75;10.75;6.00
26185;PMS7003;20067;48.764;9.176;2024-03-22T09:44:32;11.00;11.00;5.00
26185;PMS7003;20067;48.764;9.176;2024-03-22T09:46:59;12.50;11.25;5.75
26185;PMS7003;20067;48.764;9.176;2024-03-22T09:49:25;11.00;11.00;6.50
26185;PMS7003;20067;48.764;9.176;2024-03-22T09:51:52;12.50;12.00;7.75
26185;PMS7003;20067;48.764;9.176;2024-03-22T09:54:18;11.75;11.00;6.00
26185;PMS7003;20067;48.764;9.176;2024-03-22T09:56:44;11.75;11.50;7.00
26185;PMS7003;20067;48.764;9.176;2024-03-22T09:59:13;9.50;9.50;5.00
26185;PMS7003;20067;48.764;9.176;2024-03-22T10:01:39;10.75;10.75;6.00
26185;PMS7003;20067;48.764;9.176;2024-03-22T10:04:06;12.00;10.00;5.75
26185;PMS7003;20067;48.764;9.176;2024-03-22T10:06:34;12.00;12.00;6.00
26185;PMS7003;20067;48.764;9.176;2024-03-22T10:09:00;15.00;15.00;9.50
26185;PMS7003;20067;48.764;9.176;2024-03-22T10:11:28;13.00;11.50;7.75
26185;PMS7003;20067;48.764;9.176;2024-03-22T10:13:54;10.50;10.50;6.00
26185;PMS7003;20067;48.764;9.176;2024-03-22T10:16:21;10.75;10.75;6.00
26185;PMS7003;20067;48.764;9.176;2024-03-22T10:18:47;12.25;11.25;6.25
26185;PMS7003;20067;48.764;9.176;2024-03-22T10:21:17;12.25;11.00;6.25
26185;PMS7003;20067;48.764;9.176;2024-03-22T10:23:43;11.00;11.00;7.00
26185;PMS7003;20067;48.764;9.176;2024-03-22T10:26:12;10.00;10.00;6.25
26185;PMS7003;20067;48.764;9.176;2024-03-22T10:28:43;14.00;14.00;7.75
26185;PMS7003;20067;48.764;9.176;2024-03-22T10:31:14;11.25;10.50;4.50
26185;PMS7003;20067;48.764;9.176;2024-03-22T10:33:40;13.50;12.75;7.00
26185;PMS7003;20067;48.764;9.176;2024-03-22T10:36:07;14.75;10.00;7.00
26185;PMS7003;20067;48.764;9.176;2024-03-22T10:38:36;13.25;12.00;7.50
26185;PMS7003;20067;48.764;9.176;2024-03-22T10:41:04;12.00;10.00;6.00
26185;PMS7003;20067;48.764;9.176;2024-03-22T10:43:30;12.00;12.00;6.00
26185;PMS7003;20067;48.764;9.176;2024-03-22T10:46:00;13.50;13.00;8.00
26185;PMS7003;20067;48.764;9.176;2024-03-22T10:48:29;9.00;9.00;6.00
26185;PMS7003;20067;48.764;9.176;2024-03-22T10:50:59;16.50;10.25;6.75
26185;PMS7003;20067;48.764;9.176;2024-03-22T10:53:26;13.75;11.25;6.75
26185;PMS7003;20067;48.764;9.176;2024-03-22T10:55:56;12.50;11.50;7.00
26185;PMS7003;20067;48.764;9.176;2024-03-22T10:58:24;10.75;10.00;5.50
26185;PMS7003;20067;48.764;9.176;2024-03-22T11:00:52;12.00;12.00;7.00
26185;PMS7003;20067;48.764;9.176;2024-03-22T11:03:22;12.00;11.00;7.75
26185;PMS7003;20067;48.764;9.176;2024-03-22T11:05:54;11.00;10.00;5.25
26185;PMS7003;20067;48.764;9.176;2024-03-22T11:10:51;15.25;12.75;8.00
26185;PMS7003;20067;48.764;9.176;2024-03-22T11:13:17;14.25;13.75;8.00
26185;PMS7003;20067;48.764;9.176;2024-03-22T11:15:47;13.00;11.50;7.75
26185;PMS7003;20067;48.764;9.176;2024-03-22T11:18:17;13.75;11.25;6.00
26185;PMS7003;20067;48.764;9.176;2024-03-22T11:20:44;15.50;13.50;7.00
26185;PMS7003;20067;48.764;9.176;2024-03-22T11:23:10;13.50;12.25;8.25
26185;PMS7003;20067;48.764;9.176;2024-03-22T11:25:37;13.00;12.00;6.00
26185;PMS7003;20067;48.764;9.176;2024-03-22T11:28:02;10.00;10.00;6.00
26185;PMS7003;20067;48.764;9.176;2024-03-22T11:30:30;12.00;10.75;6.00
26185;PMS7003;20067;48.764;9.176;2024-03-22T11:33:02;10.75;10.75;5.00
26185;PMS7003;20067;48.764;9.176;2024-03-22T11:35:29;9.25;9.25;5.00
26185;PMS7003;20067;48.764;9.176;2024-03-22T11:37:55;7.25;7.25;4.00
26185;PMS7003;20067;48.764;9.176;2024-03-22T11:40:24;10.50;8.50;4.75
26185;PMS7003;20067;48.764;9.176;2024-03-22T11:42:53;8.00;7.25;4.25
26185;PMS7003;20067;48.764;9.176;2024-03-22T11:45:20;8.25;7.25;3.00
26185;PMS7003;20067;48.764;9.176;2024-03-22T11:47:49;7.25;7.25;4.00
26185;PMS7003;20067;48.764;9.176;2024-03-22T11:50:15;8.75;7.25;4.00
26185;PMS7003;20067;48.764;9.176;2024-03-22T11:52:42;10.75;10.00;5.00
26185;PMS7003;20067;48.764;9.176;2024-03-22T11:55:12;9.75;9.75;4.50
26185;PMS7003;20067;48.764;9.176;2024-03-22T11:57:38;8.25;8.25;4.25
26185;PMS7003;20067;48.764;9.176;2024-03-22T12:00:05;9.00;9.00;4.25
26185;PMS7003;20067;48.764;9.176;2024-03-22T12:02:37;7.25;7.25;3.00
26185;PMS7003;20067;48.764;9.176;2024-03-22T12:05:04;11.75;11.75;7.50
26185;PMS7003;20067;48.764;9.176;2024-03-22T12:07:31;11.50;11.50;7.50
26185;PMS7003;20067;48.764;9.176;2024-03-22T12:09:58;11.00;10.50;5.25
26185;PMS7003;20067;48.764;9.176;2024-03-22T12:12:24;12.00;11.25;6.00
26185;PMS7003;20067;48.764;9.176;2024-03-22T12:14:51;11.50;11.00;6.00
26185;PMS7003;20067;48.764;9.176;2024-03-22T12:17:17;14.00;11.50;6.75
26185;PMS7003;20067;48.764;9.176;2024-03-22T12:19:44;15.75;12.25;7.00
26185;PMS7003;20067;48.764;9.176;2024-03-22T12:22:10;14.00;13.00;8.00
26185;PMS7003;20067;48.764;9.176;2024-03-22T12:24:37;15.00;14.00;8.25
26185;PMS7003;20067;48.764;9.176;2024-03-22T12:27:03;12.00;11.25;6.25
26185;PMS7003;20067;48.764;9.176;2024-03-22T12:29:33;8.75;8.00;4.00
26185;PMS7003;20067;48.764;9.176;2024-03-22T12:32:00;12.00;9.75;6.00
26185;PMS7003;20067;48.764;9.176;2024-03-22T12:34:28;8.00;8.00;3.50
26185;PMS7003;20067;48.764;9.176;2024-03-22T12:36:58;9.75;9.25;5.75
26185;PMS7003;20067;48.764;9.176;2024-03-22T12:39:25;8.00;8.00;3.00
26185;PMS7003;20067;48.764;9.176;2024-03-22T12:41:51;8.50;8.50;5.00
26185;PMS7003;20067;48.764;9.176;2024-03-22T12:44:19;12.25;11.00;3.00
26185;PMS7003;20067;48.764;9.176;2024-03-22T12:46:45;8.00;8.00;5.00
26185;PMS7003;20067;48.764;9.176;2024-03-22T12:49:12;8.25;8.25;4.25
26185;PMS7003;20067;48.764;9.176;2024-03-22T12:51:38;8.00;8.00;3.50
26185;PMS7003;20067;48.764;9.176;2024-03-22T12:54:05;8.75;8.75;4.50
26185;PMS7003;20067;48.764;9.176;2024-03-22T12:56:31;9.00;8.00;4.00
26185;PMS7003;20067;48.764;9.176;2024-03-22T12:58:58;8.75;8.75;4.00
26185;PMS7003;20067;48.764;9.176;2024-03-22T13:01:24;7.75;7.75;3.00
26185;PMS7003;20067;48.764;9.176;2024-03-22T13:03:51;8.00;8.00;4.00
26185;PMS7003;20067;48.764;9.176;2024-03-22T13:06:17;9.25;9.25;4.50
26185;PMS7003;20067;48.764;9.176;2024-03-22T13:08:43;9.75;8.75;4.75
26185;PMS7003;20067;48.764;9.176;2024-03-22T13:11:09;9.00;9.00;4.00
26185;PMS7003;20067;48.764;9.176;2024-03-22T13:13:36;7.50;7.50;3.50
26185;PMS7003;20067;48.764;9.176;2024-03-22T13:16:02;7.50;7.50;4.00
26185;PMS7003;20067;48.764;9.176;2024-03-22T13:18:30;10.00;10.00;5.00
26185;PMS7003;20067;48.764;9.176;2024-03-22T13:20:56;11.50;11.25;6.00
26185;PMS7003;20067;48.764;9.176;2024-03-22T13:23:22;10.75;10.00;5.00
26185;PMS7003;20067;48.764;9.176;2024-03-22T13:25:48;9.00;9.00;4.50
26185;PMS7003;20067;48.764;9.176;2024-03-22T13:28:16;9.25;8.25;5.50
26185;PMS7003;20067;48.764;9.176;2024-03-22T13:30:46;13.00;13.00;8.00
26185;PMS7003;20067;48.764;9.176;2024-03-22T13:33:13;11.00;11.00;6.75
26185;PMS7003;20067;48.764;9.176;2024-03-22T13:36:26;11.25;10.50;6.00
26185;PMS7003;20067;48.764;9.176;2024-03-22T13:38:57;10.75;8.75;6.00
26185;PMS7003;20067;48.764;9.176;2024-03-22T13:41:23;8.50;7.00;3.00
26185;PMS7003;20067;48.764;9.176;2024-03-22T13:43:50;14.00;10.00;6.00
26185;PMS7003;20067;48.764;9.176;2024-03-22T13:46:16;9.50;8.75;4.25
26185;PMS7003;20067;48.764;9.176;2024-03-22T13:48:43;10.25;9.25;5.25
26185;PMS7003;20067;48.764;9.176;2024-03-22T13:51:09;9.50;9.50;5.00
26185;PMS7003;20067;48.764;9.176;2024-03-22T13:53:36;9.25;8.00;4.00
26185;PMS7003;20067;48.764;9.176;2024-03-22T13:56:02;9.00;8.50;4.00